Brent, Alabama
Current Conditions -  °F | °C
As of 11:14 AM on Sunday 23 Nov 2014 (Local Time) from KEET Reporting Station
Moderate Rain Moderate Rain  
Wind Chill: 62°   Ceiling: 400
Heat Index: 62°   Visibility: 3mi
Dew Point: 61°   Wind: 6mph
Humidity: 96%   Direction: NA
Pressure: 29.72"   Gusts: NA
Location:  32.94°N, 87.16°W
Report Text: KEET 231714Z AUTO VRB05KT 3SM RA BR OVC004 17/16 A2972 RMK AO2 LTG DSNT N TSE1658 P0007 T01670161
Loading
Personal Weather Stations






























Interactive Weather Map New forecast layout! Learn more

10-Day Weather Forecast

Advertisements
Track Severe Weather on mobile